sensor_id;sensor_type;location;lat;lon;timestamp;P1;durP1;ratioP1;P2;durP2;ratioP2
61483;SDS011;47349;55.640;37.692;2022-10-16T00:01:26;7.38;;;5.93;;
61483;SDS011;47349;55.640;37.692;2022-10-16T00:04:52;7.80;;;5.65;;
61483;SDS011;47349;55.640;37.692;2022-10-16T00:08:17;9.05;;;5.90;;
61483;SDS011;47349;55.640;37.692;2022-10-16T00:11:30;11.55;;;6.28;;
61483;SDS011;47349;55.640;37.692;2022-10-16T00:14:43;10.82;;;6.40;;
61483;SDS011;47349;55.640;37.692;2022-10-16T00:18:03;24.73;;;10.82;;
61483;SDS011;47349;55.640;37.692;2022-10-16T00:21:26;14.93;;;7.47;;
61483;SDS011;47349;55.640;37.692;2022-10-16T00:25:20;15.82;;;7.50;;
61483;SDS011;47349;55.640;37.692;2022-10-16T00:28:52;8.48;;;6.20;;
61483;SDS011;47349;55.640;37.692;2022-10-16T00:33:19;8.57;;;5.70;;
61483;SDS011;47349;55.640;37.692;2022-10-16T00:36:45;9.45;;;6.32;;
61483;SDS011;47349;55.640;37.692;2022-10-16T00:40:04;7.22;;;5.32;;
61483;SDS011;47349;55.640;37.692;2022-10-16T00:47:42;10.30;;;6.40;;
61483;SDS011;47349;55.640;37.692;2022-10-16T00:51:17;8.95;;;6.45;;
61483;SDS011;47349;55.640;37.692;2022-10-16T00:54:33;7.60;;;5.68;;
61483;SDS011;47349;55.640;37.692;2022-10-16T00:58:06;7.60;;;5.57;;
61483;SDS011;47349;55.640;37.692;2022-10-16T01:01:31;8.30;;;6.20;;
61483;SDS011;47349;55.640;37.692;2022-10-16T01:04:28;9.77;;;6.50;;
61483;SDS011;47349;55.640;37.692;2022-10-16T01:08:10;7.47;;;6.03;;
61483;SDS011;47349;55.640;37.692;2022-10-16T01:11:34;9.82;;;6.82;;
61483;SDS011;47349;55.640;37.692;2022-10-16T01:15:17;9.80;;;7.00;;
61483;SDS011;47349;55.640;37.692;2022-10-16T01:22:39;12.63;;;7.15;;
61483;SDS011;47349;55.640;37.692;2022-10-16T01:29:15;9.02;;;7.07;;
61483;SDS011;47349;55.640;37.692;2022-10-16T01:32:52;11.70;;;7.45;;
61483;SDS011;47349;55.640;37.692;2022-10-16T01:35:56;9.90;;;7.38;;
61483;SDS011;47349;55.640;37.692;2022-10-16T01:39:41;10.23;;;7.55;;
61483;SDS011;47349;55.640;37.692;2022-10-16T01:43:12;13.20;;;7.95;;
61483;SDS011;47349;55.640;37.692;2022-10-16T01:46:27;11.20;;;7.45;;
61483;SDS011;47349;55.640;37.692;2022-10-16T01:49:37;11.50;;;7.57;;
61483;SDS011;47349;55.640;37.692;2022-10-16T01:53:04;10.15;;;6.90;;
61483;SDS011;47349;55.640;37.692;2022-10-16T01:56:34;8.68;;;6.22;;
61483;SDS011;47349;55.640;37.692;2022-10-16T02:00:05;10.32;;;6.75;;
61483;SDS011;47349;55.640;37.692;2022-10-16T02:03:36;8.35;;;6.18;;
61483;SDS011;47349;55.640;37.692;2022-10-16T02:06:25;7.70;;;6.40;;
61483;SDS011;47349;55.640;37.692;2022-10-16T02:09:53;11.27;;;6.63;;
61483;SDS011;47349;55.640;37.692;2022-10-16T02:14:05;9.63;;;6.65;;
61483;SDS011;47349;55.640;37.692;2022-10-16T02:17:19;7.35;;;5.63;;
61483;SDS011;47349;55.640;37.692;2022-10-16T02:20:57;8.52;;;6.50;;
61483;SDS011;47349;55.640;37.692;2022-10-16T02:27:17;11.13;;;6.15;;
61483;SDS011;47349;55.640;37.692;2022-10-16T02:33:26;8.55;;;6.70;;
61483;SDS011;47349;55.640;37.692;2022-10-16T02:36:28;13.63;;;7.07;;
61483;SDS011;47349;55.640;37.692;2022-10-16T02:39:48;9.10;;;7.32;;
61483;SDS011;47349;55.640;37.692;2022-10-16T02:42:34;10.20;;;6.50;;
61483;SDS011;47349;55.640;37.692;2022-10-16T02:45:22;12.25;;;6.97;;
61483;SDS011;47349;55.640;37.692;2022-10-16T02:48:21;8.23;;;6.05;;
61483;SDS011;47349;55.640;37.692;2022-10-16T02:57:46;11.10;;;8.40;;
61483;SDS011;47349;55.640;37.692;2022-10-16T03:02:12;9.65;;;6.30;;
61483;SDS011;47349;55.640;37.692;2022-10-16T03:05:56;13.40;;;7.43;;
61483;SDS011;47349;55.640;37.692;2022-10-16T03:09:26;6.70;;;5.22;;
61483;SDS011;47349;55.640;37.692;2022-10-16T03:13:13;7.68;;;6.35;;
61483;SDS011;47349;55.640;37.692;2022-10-16T03:16:59;11.27;;;7.05;;
61483;SDS011;47349;55.640;37.692;2022-10-16T03:21:23;11.70;;;7.60;;
61483;SDS011;47349;55.640;37.692;2022-10-16T03:30:12;12.38;;;8.07;;
61483;SDS011;47349;55.640;37.692;2022-10-16T03:33:05;11.00;;;7.40;;
61483;SDS011;47349;55.640;37.692;2022-10-16T03:36:15;13.32;;;8.18;;
61483;SDS011;47349;55.640;37.692;2022-10-16T06:23:01;17.48;;;9.68;;
61483;SDS011;47349;55.640;37.692;2022-10-16T06:26:16;21.15;;;9.60;;
61483;SDS011;47349;55.640;37.692;2022-10-16T06:29:11;15.93;;;10.07;;
61483;SDS011;47349;55.640;37.692;2022-10-16T06:32:36;23.20;;;9.98;;
61483;SDS011;47349;55.640;37.692;2022-10-16T06:35:31;18.63;;;9.13;;
61483;SDS011;47349;55.640;37.692;2022-10-16T06:38:38;14.27;;;9.38;;
61483;SDS011;47349;55.640;37.692;2022-10-16T06:42:03;14.35;;;8.30;;
61483;SDS011;47349;55.640;37.692;2022-10-16T06:44:52;14.65;;;8.60;;
61483;SDS011;47349;55.640;37.692;2022-10-16T06:48:15;14.13;;;8.07;;
61483;SDS011;47349;55.640;37.692;2022-10-16T06:52:07;16.50;;;8.52;;
61483;SDS011;47349;55.640;37.692;2022-10-16T06:55:16;18.88;;;8.73;;
61483;SDS011;47349;55.640;37.692;2022-10-16T06:58:31;13.25;;;7.32;;
61483;SDS011;47349;55.640;37.692;2022-10-16T07:01:35;10.48;;;6.72;;
61483;SDS011;47349;55.640;37.692;2022-10-16T07:04:56;17.20;;;7.75;;
61483;SDS011;47349;55.640;37.692;2022-10-16T07:08:19;15.43;;;7.32;;
61483;SDS011;47349;55.640;37.692;2022-10-16T07:12:30;14.10;;;8.05;;
61483;SDS011;47349;55.640;37.692;2022-10-16T07:16:07;15.85;;;7.38;;
61483;SDS011;47349;55.640;37.692;2022-10-16T07:18:59;17.90;;;8.48;;
61483;SDS011;47349;55.640;37.692;2022-10-16T07:22:16;15.75;;;7.68;;
61483;SDS011;47349;55.640;37.692;2022-10-16T07:25:25;14.80;;;8.38;;
61483;SDS011;47349;55.640;37.692;2022-10-16T07:28:57;15.18;;;7.82;;
61483;SDS011;47349;55.640;37.692;2022-10-16T07:32:22;13.13;;;7.70;;
61483;SDS011;47349;55.640;37.692;2022-10-16T07:39:03;19.83;;;8.15;;
61483;SDS011;47349;55.640;37.692;2022-10-16T07:42:27;15.18;;;7.90;;
61483;SDS011;47349;55.640;37.692;2022-10-16T07:45:31;10.13;;;7.07;;
61483;SDS011;47349;55.640;37.692;2022-10-16T07:48:41;13.13;;;7.60;;
61483;SDS011;47349;55.640;37.692;2022-10-16T07:52:13;15.52;;;8.23;;
61483;SDS011;47349;55.640;37.692;2022-10-16T07:56:04;11.67;;;7.13;;
61483;SDS011;47349;55.640;37.692;2022-10-16T08:02:45;10.95;;;8.13;;
61483;SDS011;47349;55.640;37.692;2022-10-16T08:06:09;13.90;;;8.00;;
61483;SDS011;47349;55.640;37.692;2022-10-16T08:09:19;14.63;;;7.72;;
61483;SDS011;47349;55.640;37.692;2022-10-16T08:16:16;14.13;;;8.55;;
61483;SDS011;47349;55.640;37.692;2022-10-16T08:19:18;13.63;;;7.05;;
61483;SDS011;47349;55.640;37.692;2022-10-16T08:22:08;11.43;;;7.43;;
61483;SDS011;47349;55.640;37.692;2022-10-16T08:24:55;11.43;;;7.50;;
61483;SDS011;47349;55.640;37.692;2022-10-16T08:27:59;15.18;;;7.53;;
61483;SDS011;47349;55.640;37.692;2022-10-16T08:31:13;12.73;;;7.28;;
61483;SDS011;47349;55.640;37.692;2022-10-16T08:34:19;11.47;;;7.73;;
61483;SDS011;47349;55.640;37.692;2022-10-16T08:40:36;8.38;;;6.78;;
61483;SDS011;47349;55.640;37.692;2022-10-16T08:43:40;14.05;;;8.88;;
61483;SDS011;47349;55.640;37.692;2022-10-16T08:47:16;10.50;;;6.47;;
61483;SDS011;47349;55.640;37.692;2022-10-16T08:53:46;11.02;;;6.50;;
61483;SDS011;47349;55.640;37.692;2022-10-16T08:57:13;10.43;;;7.10;;
61483;SDS011;47349;55.640;37.692;2022-10-16T09:00:48;10.55;;;6.70;;
61483;SDS011;47349;55.640;37.692;2022-10-16T09:08:07;10.68;;;7.03;;
61483;SDS011;47349;55.640;37.692;2022-10-16T09:14:40;12.43;;;6.55;;
61483;SDS011;47349;55.640;37.692;2022-10-16T09:18:04;8.82;;;6.45;;
61483;SDS011;47349;55.640;37.692;2022-10-16T09:22:10;13.30;;;6.43;;
61483;SDS011;47349;55.640;37.692;2022-10-16T09:26:15;10.50;;;6.30;;
61483;SDS011;47349;55.640;37.692;2022-10-16T09:29:43;7.45;;;5.65;;
61483;SDS011;47349;55.640;37.692;2022-10-16T09:33:15;10.63;;;6.00;;
61483;SDS011;47349;55.640;37.692;2022-10-16T09:37:13;7.53;;;5.50;;
61483;SDS011;47349;55.640;37.692;2022-10-16T09:44:39;5.13;;;4.60;;
61483;SDS011;47349;55.640;37.692;2022-10-16T09:51:42;6.80;;;5.28;;
61483;SDS011;47349;55.640;37.692;2022-10-16T09:55:49;7.68;;;4.72;;
61483;SDS011;47349;55.640;37.692;2022-10-16T09:59:22;7.70;;;5.30;;
61483;SDS011;47349;55.640;37.692;2022-10-16T10:02:53;7.78;;;4.97;;
61483;SDS011;47349;55.640;37.692;2022-10-16T10:07:31;6.70;;;4.80;;
61483;SDS011;47349;55.640;37.692;2022-10-16T10:10:54;8.45;;;5.20;;
61483;SDS011;47349;55.640;37.692;2022-10-16T10:15:11;12.45;;;5.47;;
61483;SDS011;47349;55.640;37.692;2022-10-16T10:19:01;11.77;;;5.35;;
61483;SDS011;47349;55.640;37.692;2022-10-16T10:26:16;8.07;;;5.00;;
61483;SDS011;47349;55.640;37.692;2022-10-16T10:31:03;7.45;;;4.75;;
61483;SDS011;47349;55.640;37.692;2022-10-16T10:54:41;6.75;;;4.13;;
61483;SDS011;47349;55.640;37.692;2022-10-16T11:08:40;5.40;;;4.10;;
61483;SDS011;47349;55.640;37.692;2022-10-16T11:12:17;9.43;;;5.65;;
61483;SDS011;47349;55.640;37.692;2022-10-16T11:16:21;5.72;;;4.80;;
61483;SDS011;47349;55.640;37.692;2022-10-16T11:20:52;5.80;;;5.20;;
61483;SDS011;47349;55.640;37.692;2022-10-16T11:24:45;6.47;;;4.65;;
61483;SDS011;47349;55.640;37.692;2022-10-16T11:28:54;6.70;;;4.57;;
61483;SDS011;47349;55.640;37.692;2022-10-16T11:33:10;7.32;;;4.90;;
61483;SDS011;47349;55.640;37.692;2022-10-16T11:36:34;6.15;;;5.22;;
61483;SDS011;47349;55.640;37.692;2022-10-16T11:39:42;6.07;;;5.47;;
61483;SDS011;47349;55.640;37.692;2022-10-16T11:42:48;5.85;;;5.20;;
61483;SDS011;47349;55.640;37.692;2022-10-16T11:45:57;10.23;;;7.25;;
61483;SDS011;47349;55.640;37.692;2022-10-16T11:49:21;5.78;;;5.25;;
61483;SDS011;47349;55.640;37.692;2022-10-16T11:56:18;6.45;;;5.72;;
61483;SDS011;47349;55.640;37.692;2022-10-16T12:00:06;5.70;;;5.10;;
61483;SDS011;47349;55.640;37.692;2022-10-16T12:06:13;7.97;;;5.95;;
61483;SDS011;47349;55.640;37.692;2022-10-16T12:09:25;9.23;;;5.75;;
61483;SDS011;47349;55.640;37.692;2022-10-16T12:12:51;6.78;;;5.63;;
61483;SDS011;47349;55.640;37.692;2022-10-16T12:16:37;7.45;;;5.97;;
61483;SDS011;47349;55.640;37.692;2022-10-16T12:19:59;9.68;;;5.93;;
61483;SDS011;47349;55.640;37.692;2022-10-16T12:23:20;7.35;;;5.28;;
61483;SDS011;47349;55.640;37.692;2022-10-16T12:26:53;8.18;;;7.07;;
61483;SDS011;47349;55.640;37.692;2022-10-16T12:30:25;14.02;;;9.48;;
61483;SDS011;47349;55.640;37.692;2022-10-16T12:33:28;6.70;;;6.05;;
61483;SDS011;47349;55.640;37.692;2022-10-16T12:36:41;7.45;;;6.38;;
61483;SDS011;47349;55.640;37.692;2022-10-16T12:40:31;6.70;;;5.88;;
61483;SDS011;47349;55.640;37.692;2022-10-16T12:43:48;8.70;;;6.78;;
61483;SDS011;47349;55.640;37.692;2022-10-16T12:46:37;6.40;;;5.80;;
61483;SDS011;47349;55.640;37.692;2022-10-16T12:50:33;9.23;;;7.18;;
61483;SDS011;47349;55.640;37.692;2022-10-16T12:53:25;8.05;;;6.18;;
61483;SDS011;47349;55.640;37.692;2022-10-16T12:56:24;10.02;;;6.78;;
61483;SDS011;47349;55.640;37.692;2022-10-16T12:59:54;6.68;;;5.90;;
61483;SDS011;47349;55.640;37.692;2022-10-16T13:09:52;6.90;;;6.18;;
61483;SDS011;47349;55.640;37.692;2022-10-16T13:23:53;7.10;;;6.20;;
61483;SDS011;47349;55.640;37.692;2022-10-16T13:29:31;7.88;;;6.20;;
61483;SDS011;47349;55.640;37.692;2022-10-16T13:32:38;9.55;;;6.32;;
61483;SDS011;47349;55.640;37.692;2022-10-16T13:35:52;7.50;;;5.38;;
61483;SDS011;47349;55.640;37.692;2022-10-16T13:39:26;7.18;;;6.45;;
61483;SDS011;47349;55.640;37.692;2022-10-16T14:46:03;13.35;;;6.10;;
61483;SDS011;47349;55.640;37.692;2022-10-16T14:50:04;6.93;;;5.82;;
61483;SDS011;47349;55.640;37.692;2022-10-16T14:53:50;11.15;;;6.15;;
61483;SDS011;47349;55.640;37.692;2022-10-16T14:57:48;9.88;;;6.18;;
61483;SDS011;47349;55.640;37.692;2022-10-16T15:01:42;9.25;;;6.82;;
61483;SDS011;47349;55.640;37.692;2022-10-16T15:04:25;9.50;;;6.72;;
61483;SDS011;47349;55.640;37.692;2022-10-16T15:07:07;9.55;;;6.47;;
61483;SDS011;47349;55.640;37.692;2022-10-16T15:09:48;10.73;;;7.57;;
61483;SDS011;47349;55.640;37.692;2022-10-16T15:12:34;9.30;;;6.60;;
61483;SDS011;47349;55.640;37.692;2022-10-16T15:15:15;9.45;;;6.75;;
61483;SDS011;47349;55.640;37.692;2022-10-16T15:18:13;13.05;;;7.45;;
61483;SDS011;47349;55.640;37.692;2022-10-16T15:21:01;11.30;;;6.23;;
61483;SDS011;47349;55.640;37.692;2022-10-16T15:23:43;10.30;;;7.05;;
61483;SDS011;47349;55.640;37.692;2022-10-16T15:26:26;11.82;;;8.00;;
61483;SDS011;47349;55.640;37.692;2022-10-16T15:29:09;11.02;;;7.50;;
61483;SDS011;47349;55.640;37.692;2022-10-16T15:31:51;10.15;;;7.80;;
61483;SDS011;47349;55.640;37.692;2022-10-16T15:34:33;12.27;;;7.78;;
61483;SDS011;47349;55.640;37.692;2022-10-16T15:37:14;10.35;;;7.82;;
61483;SDS011;47349;55.640;37.692;2022-10-16T15:39:55;16.52;;;7.47;;
61483;SDS011;47349;55.640;37.692;2022-10-16T15:42:39;10.73;;;7.13;;
61483;SDS011;47349;55.640;37.692;2022-10-16T15:45:22;9.40;;;7.82;;
61483;SDS011;47349;55.640;37.692;2022-10-16T15:48:06;10.60;;;7.93;;
61483;SDS011;47349;55.640;37.692;2022-10-16T15:50:51;10.60;;;7.15;;
61483;SDS011;47349;55.640;37.692;2022-10-16T15:53:33;10.30;;;7.28;;
61483;SDS011;47349;55.640;37.692;2022-10-16T15:56:19;13.02;;;7.82;;
61483;SDS011;47349;55.640;37.692;2022-10-16T15:59:24;10.88;;;7.53;;
61483;SDS011;47349;55.640;37.692;2022-10-16T16:02:15;11.27;;;8.27;;
61483;SDS011;47349;55.640;37.692;2022-10-16T16:04:56;16.15;;;8.27;;
61483;SDS011;47349;55.640;37.692;2022-10-16T16:07:38;17.73;;;8.75;;
61483;SDS011;47349;55.640;37.692;2022-10-16T16:10:20;12.50;;;8.07;;
61483;SDS011;47349;55.640;37.692;2022-10-16T16:13:02;16.95;;;9.48;;
61483;SDS011;47349;55.640;37.692;2022-10-16T16:15:53;21.23;;;9.80;;
61483;SDS011;47349;55.640;37.692;2022-10-16T16:18:35;15.85;;;8.75;;
61483;SDS011;47349;55.640;37.692;2022-10-16T16:21:38;17.17;;;9.65;;
61483;SDS011;47349;55.640;37.692;2022-10-16T16:24:23;15.20;;;9.10;;
61483;SDS011;47349;55.640;37.692;2022-10-16T16:27:04;16.35;;;9.82;;
61483;SDS011;47349;55.640;37.692;2022-10-16T16:29:47;15.85;;;9.40;;
61483;SDS011;47349;55.640;37.692;2022-10-16T16:32:29;18.00;;;9.65;;
61483;SDS011;47349;55.640;37.692;2022-10-16T16:35:12;17.30;;;10.48;;
61483;SDS011;47349;55.640;37.692;2022-10-16T16:37:58;15.23;;;9.93;;
61483;SDS011;47349;55.640;37.692;2022-10-16T16:40:29;16.35;;;9.05;;
61483;SDS011;47349;55.640;37.692;2022-10-16T16:43:10;14.43;;;9.65;;
61483;SDS011;47349;55.640;37.692;2022-10-16T16:45:51;15.23;;;8.98;;
61483;SDS011;47349;55.640;37.692;2022-10-16T16:48:34;13.95;;;9.30;;
61483;SDS011;47349;55.640;37.692;2022-10-16T16:51:20;18.00;;;9.88;;
61483;SDS011;47349;55.640;37.692;2022-10-16T16:54:28;13.23;;;9.32;;
61483;SDS011;47349;55.640;37.692;2022-10-16T16:57:11;16.60;;;9.50;;
61483;SDS011;47349;55.640;37.692;2022-10-16T16:59:56;19.02;;;9.65;;
61483;SDS011;47349;55.640;37.692;2022-10-16T17:02:42;13.90;;;9.40;;
61483;SDS011;47349;55.640;37.692;2022-10-16T17:05:28;17.83;;;9.80;;
61483;SDS011;47349;55.640;37.692;2022-10-16T17:08:13;15.45;;;9.80;;
61483;SDS011;47349;55.640;37.692;2022-10-16T17:10:55;14.45;;;8.88;;
61483;SDS011;47349;55.640;37.692;2022-10-16T17:13:38;12.32;;;8.30;;
61483;SDS011;47349;55.640;37.692;2022-10-16T17:16:20;18.20;;;9.02;;
61483;SDS011;47349;55.640;37.692;2022-10-16T17:19:12;15.40;;;9.57;;
61483;SDS011;47349;55.640;37.692;2022-10-16T17:21:57;18.73;;;8.30;;
61483;SDS011;47349;55.640;37.692;2022-10-16T17:24:40;14.13;;;9.57;;
61483;SDS011;47349;55.640;37.692;2022-10-16T17:27:21;11.00;;;6.35;;
61483;SDS011;47349;55.640;37.692;2022-10-16T17:30:11;10.95;;;7.80;;
61483;SDS011;47349;55.640;37.692;2022-10-16T17:32:54;13.45;;;7.90;;
61483;SDS011;47349;55.640;37.692;2022-10-16T17:35:37;11.35;;;8.13;;
61483;SDS011;47349;55.640;37.692;2022-10-16T17:38:18;15.02;;;7.93;;
61483;SDS011;47349;55.640;37.692;2022-10-16T17:41:22;11.98;;;7.63;;
61483;SDS011;47349;55.640;37.692;2022-10-16T17:44:07;14.20;;;7.32;;
61483;SDS011;47349;55.640;37.692;2022-10-16T17:47:27;12.15;;;6.60;;
61483;SDS011;47349;55.640;37.692;2022-10-16T17:50:41;12.70;;;8.07;;
61483;SDS011;47349;55.640;37.692;2022-10-16T17:53:25;9.25;;;6.80;;
61483;SDS011;47349;55.640;37.692;2022-10-16T17:56:12;14.03;;;8.10;;
61483;SDS011;47349;55.640;37.692;2022-10-16T17:58:42;10.40;;;6.75;;
61483;SDS011;47349;55.640;37.692;2022-10-16T18:01:26;8.88;;;7.15;;
61483;SDS011;47349;55.640;37.692;2022-10-16T18:04:12;11.80;;;7.43;;
61483;SDS011;47349;55.640;37.692;2022-10-16T18:06:55;9.68;;;6.55;;
61483;SDS011;47349;55.640;37.692;2022-10-16T18:09:26;8.23;;;6.30;;
61483;SDS011;47349;55.640;37.692;2022-10-16T18:11:59;9.65;;;6.63;;
61483;SDS011;47349;55.640;37.692;2022-10-16T18:14:42;8.23;;;6.90;;
61483;SDS011;47349;55.640;37.692;2022-10-16T18:17:26;10.27;;;6.38;;
61483;SDS011;47349;55.640;37.692;2022-10-16T18:20:10;8.65;;;6.57;;
61483;SDS011;47349;55.640;37.692;2022-10-16T18:23:26;9.00;;;6.80;;
61483;SDS011;47349;55.640;37.692;2022-10-16T18:27:45;10.40;;;6.38;;
61483;SDS011;47349;55.640;37.692;2022-10-16T18:43:36;8.23;;;5.88;;
61483;SDS011;47349;55.640;37.692;2022-10-16T18:46:21;10.18;;;5.70;;
61483;SDS011;47349;55.640;37.692;2022-10-16T18:49:04;6.50;;;5.78;;
61483;SDS011;47349;55.640;37.692;2022-10-16T18:51:51;10.23;;;6.38;;
61483;SDS011;47349;55.640;37.692;2022-10-16T18:54:36;10.60;;;6.28;;
61483;SDS011;47349;55.640;37.692;2022-10-16T18:57:29;11.18;;;6.80;;
61483;SDS011;47349;55.640;37.692;2022-10-16T19:00:31;8.13;;;6.30;;
61483;SDS011;47349;55.640;37.692;2022-10-16T19:03:13;8.85;;;6.10;;
61483;SDS011;47349;55.640;37.692;2022-10-16T19:05:57;12.15;;;6.72;;
61483;SDS011;47349;55.640;37.692;2022-10-16T19:08:43;7.20;;;5.47;;
61483;SDS011;47349;55.640;37.692;2022-10-16T19:11:27;8.98;;;5.72;;
61483;SDS011;47349;55.640;37.692;2022-10-16T19:14:11;6.03;;;5.43;;
61483;SDS011;47349;55.640;37.692;2022-10-16T19:16:55;11.27;;;6.50;;
61483;SDS011;47349;55.640;37.692;2022-10-16T19:19:24;7.40;;;5.47;;
61483;SDS011;47349;55.640;37.692;2022-10-16T19:22:07;7.03;;;5.57;;
61483;SDS011;47349;55.640;37.692;2022-10-16T19:24:53;8.68;;;6.00;;
61483;SDS011;47349;55.640;37.692;2022-10-16T19:27:35;7.30;;;5.47;;
61483;SDS011;47349;55.640;37.692;2022-10-16T19:30:19;9.77;;;5.97;;
61483;SDS011;47349;55.640;37.692;2022-10-16T19:33:02;9.48;;;5.60;;
61483;SDS011;47349;55.640;37.692;2022-10-16T19:35:44;10.02;;;7.18;;
61483;SDS011;47349;55.640;37.692;2022-10-16T19:38:27;8.10;;;6.35;;
61483;SDS011;47349;55.640;37.692;2022-10-16T19:41:11;15.32;;;8.60;;
61483;SDS011;47349;55.640;37.692;2022-10-16T19:44:02;9.73;;;6.38;;
61483;SDS011;47349;55.640;37.692;2022-10-16T19:46:44;8.57;;;6.00;;
61483;SDS011;47349;55.640;37.692;2022-10-16T19:49:28;9.52;;;6.63;;
61483;SDS011;47349;55.640;37.692;2022-10-16T19:52:10;12.18;;;7.68;;
61483;SDS011;47349;55.640;37.692;2022-10-16T19:54:53;7.05;;;6.25;;
61483;SDS011;47349;55.640;37.692;2022-10-16T19:57:37;8.75;;;6.07;;
61483;SDS011;47349;55.640;37.692;2022-10-16T20:00:19;10.77;;;6.60;;
61483;SDS011;47349;55.640;37.692;2022-10-16T20:03:00;8.85;;;6.30;;
61483;SDS011;47349;55.640;37.692;2022-10-16T20:06:01;10.30;;;6.97;;
61483;SDS011;47349;55.640;37.692;2022-10-16T20:08:33;8.75;;;6.70;;
61483;SDS011;47349;55.640;37.692;2022-10-16T20:11:17;8.40;;;6.45;;
61483;SDS011;47349;55.640;37.692;2022-10-16T20:14:00;8.35;;;5.97;;
61483;SDS011;47349;55.640;37.692;2022-10-16T20:16:43;9.07;;;5.68;;
61483;SDS011;47349;55.640;37.692;2022-10-16T20:19:24;8.73;;;5.20;;
61483;SDS011;47349;55.640;37.692;2022-10-16T20:22:05;10.43;;;5.40;;
61483;SDS011;47349;55.640;37.692;2022-10-16T20:24:46;6.63;;;5.70;;
61483;SDS011;47349;55.640;37.692;2022-10-16T20:27:28;7.82;;;5.88;;
61483;SDS011;47349;55.640;37.692;2022-10-16T20:30:10;8.55;;;5.13;;
61483;SDS011;47349;55.640;37.692;2022-10-16T20:32:40;7.82;;;4.88;;
61483;SDS011;47349;55.640;37.692;2022-10-16T20:35:16;9.02;;;5.50;;
61483;SDS011;47349;55.640;37.692;2022-10-16T20:37:57;7.35;;;5.50;;
61483;SDS011;47349;55.640;37.692;2022-10-16T20:40:25;9.77;;;5.78;;
61483;SDS011;47349;55.640;37.692;2022-10-16T20:43:06;9.55;;;5.50;;
61483;SDS011;47349;55.640;37.692;2022-10-16T20:45:59;6.75;;;5.53;;
61483;SDS011;47349;55.640;37.692;2022-10-16T20:48:42;9.35;;;5.95;;
61483;SDS011;47349;55.640;37.692;2022-10-16T20:51:25;9.52;;;6.38;;
61483;SDS011;47349;55.640;37.692;2022-10-16T20:54:09;7.22;;;5.70;;
61483;SDS011;47349;55.640;37.692;2022-10-16T20:56:52;7.72;;;5.93;;
61483;SDS011;47349;55.640;37.692;2022-10-16T20:59:34;7.25;;;5.82;;
61483;SDS011;47349;55.640;37.692;2022-10-16T21:02:15;6.82;;;5.43;;
61483;SDS011;47349;55.640;37.692;2022-10-16T21:04:56;8.25;;;5.90;;
61483;SDS011;47349;55.640;37.692;2022-10-16T21:07:38;8.27;;;5.70;;
61483;SDS011;47349;55.640;37.692;2022-10-16T21:10:19;9.75;;;5.90;;
61483;SDS011;47349;55.640;37.692;2022-10-16T21:13:01;9.57;;;5.80;;
61483;SDS011;47349;55.640;37.692;2022-10-16T21:15:43;7.75;;;6.30;;
61483;SDS011;47349;55.640;37.692;2022-10-16T21:18:13;7.45;;;6.13;;
61483;SDS011;47349;55.640;37.692;2022-10-16T21:20:54;8.05;;;5.97;;
61483;SDS011;47349;55.640;37.692;2022-10-16T21:23:35;7.50;;;5.88;;
61483;SDS011;47349;55.640;37.692;2022-10-16T21:26:16;8.82;;;5.75;;
61483;SDS011;47349;55.640;37.692;2022-10-16T21:29:00;7.72;;;4.93;;
61483;SDS011;47349;55.640;37.692;2022-10-16T21:31:43;6.95;;;5.65;;
61483;SDS011;47349;55.640;37.692;2022-10-16T21:34:24;8.65;;;5.70;;
61483;SDS011;47349;55.640;37.692;2022-10-16T21:37:07;7.15;;;5.28;;
61483;SDS011;47349;55.640;37.692;2022-10-16T21:39:50;11.13;;;5.40;;
61483;SDS011;47349;55.640;37.692;2022-10-16T21:42:31;7.47;;;6.07;;
61483;SDS011;47349;55.640;37.692;2022-10-16T21:45:00;10.00;;;5.97;;
61483;SDS011;47349;55.640;37.692;2022-10-16T21:47:31;7.60;;;6.53;;
61483;SDS011;47349;55.640;37.692;2022-10-16T21:50:13;7.05;;;6.22;;
61483;SDS011;47349;55.640;37.692;2022-10-16T21:52:41;4.93;;;4.40;;
61483;SDS011;47349;55.640;37.692;2022-10-16T21:55:22;7.80;;;6.10;;
61483;SDS011;47349;55.640;37.692;2022-10-16T21:58:03;8.15;;;6.03;;
61483;SDS011;47349;55.640;37.692;2022-10-16T22:00:32;7.47;;;6.18;;
61483;SDS011;47349;55.640;37.692;2022-10-16T22:03:12;8.82;;;6.05;;
61483;SDS011;47349;55.640;37.692;2022-10-16T22:05:54;5.47;;;4.88;;
61483;SDS011;47349;55.640;37.692;2022-10-16T22:08:22;6.93;;;4.95;;
61483;SDS011;47349;55.640;37.692;2022-10-16T22:10:53;9.68;;;6.03;;
61483;SDS011;47349;55.640;37.692;2022-10-16T22:13:21;6.57;;;5.18;;
61483;SDS011;47349;55.640;37.692;2022-10-16T22:16:03;7.88;;;5.95;;
61483;SDS011;47349;55.640;37.692;2022-10-16T22:18:45;10.48;;;6.50;;
61483;SDS011;47349;55.640;37.692;2022-10-16T22:21:28;8.15;;;6.75;;
61483;SDS011;47349;55.640;37.692;2022-10-16T22:24:10;8.23;;;6.25;;
61483;SDS011;47349;55.640;37.692;2022-10-16T22:26:51;10.93;;;6.30;;
61483;SDS011;47349;55.640;37.692;2022-10-16T22:29:32;7.90;;;5.78;;
61483;SDS011;47349;55.640;37.692;2022-10-16T22:32:13;9.05;;;6.68;;
61483;SDS011;47349;55.640;37.692;2022-10-16T22:34:55;12.25;;;6.40;;
61483;SDS011;47349;55.640;37.692;2022-10-16T22:37:36;6.40;;;4.90;;
61483;SDS011;47349;55.640;37.692;2022-10-16T22:40:16;7.18;;;5.95;;
61483;SDS011;47349;55.640;37.692;2022-10-16T22:42:58;8.80;;;5.90;;
61483;SDS011;47349;55.640;37.692;2022-10-16T22:45:39;7.38;;;6.10;;
61483;SDS011;47349;55.640;37.692;2022-10-16T22:48:20;8.85;;;6.47;;
61483;SDS011;47349;55.640;37.692;2022-10-16T22:51:01;7.50;;;5.97;;
61483;SDS011;47349;55.640;37.692;2022-10-16T22:53:47;9.15;;;5.93;;
61483;SDS011;47349;55.640;37.692;2022-10-16T22:56:29;8.57;;;6.38;;
61483;SDS011;47349;55.640;37.692;2022-10-16T22:59:10;10.65;;;6.20;;
61483;SDS011;47349;55.640;37.692;2022-10-16T23:01:51;12.27;;;7.22;;
61483;SDS011;47349;55.640;37.692;2022-10-16T23:04:32;8.68;;;6.95;;
61483;SDS011;47349;55.640;37.692;2022-10-16T23:07:17;9.68;;;6.70;;
61483;SDS011;47349;55.640;37.692;2022-10-16T23:09:58;11.77;;;7.20;;
61483;SDS011;47349;55.640;37.692;2022-10-16T23:12:39;8.95;;;6.68;;
61483;SDS011;47349;55.640;37.692;2022-10-16T23:15:21;10.80;;;6.65;;
61483;SDS011;47349;55.640;37.692;2022-10-16T23:18:02;6.72;;;5.50;;
61483;SDS011;47349;55.640;37.692;2022-10-16T23:20:43;9.20;;;6.70;;
61483;SDS011;47349;55.640;37.692;2022-10-16T23:23:24;11.13;;;7.13;;
61483;SDS011;47349;55.640;37.692;2022-10-16T23:26:09;9.85;;;6.65;;
61483;SDS011;47349;55.640;37.692;2022-10-16T23:28:58;9.45;;;5.75;;
61483;SDS011;47349;55.640;37.692;2022-10-16T23:31:39;9.18;;;6.07;;
61483;SDS011;47349;55.640;37.692;2022-10-16T23:34:20;10.25;;;6.45;;
61483;SDS011;47349;55.640;37.692;2022-10-16T23:37:02;7.55;;;6.30;;
61483;SDS011;47349;55.640;37.692;2022-10-16T23:39:43;10.45;;;7.35;;
61483;SDS011;47349;55.640;37.692;2022-10-16T23:42:24;11.27;;;7.05;;
61483;SDS011;47349;55.640;37.692;2022-10-16T23:44:52;10.10;;;6.72;;
61483;SDS011;47349;55.640;37.692;2022-10-16T23:47:33;7.88;;;6.25;;
61483;SDS011;47349;55.640;37.692;2022-10-16T23:50:14;9.77;;;5.97;;
61483;SDS011;47349;55.640;37.692;2022-10-16T23:52:57;7.53;;;5.97;;
61483;SDS011;47349;55.640;37.692;2022-10-16T23:55:25;9.82;;;7.00;;
61483;SDS011;47349;55.640;37.692;2022-10-16T23:58:06;12.95;;;6.75;;
